createdAt,value
2023-01-13T00:01:15.121Z,98082.72
2023-01-13T00:03:42.191Z,98076.59
2023-01-13T00:06:09.259Z,98080.84
2023-01-13T00:08:36.368Z,98078.34
2023-01-13T00:13:50.431Z,98073.53
2023-01-13T00:16:17.556Z,98074.50
2023-01-13T00:18:44.664Z,98070.81
2023-01-13T00:21:11.715Z,98072.81
2023-01-13T00:23:39.543Z,98067.75
2023-01-13T00:26:06.607Z,98071.16
2023-01-13T00:28:33.727Z,98066.22
2023-01-13T00:33:49.142Z,98058.41
2023-01-13T00:36:16.224Z,98056.53
2023-01-13T00:38:43.286Z,98052.16
2023-01-13T00:41:10.364Z,98049.56
2023-01-13T00:43:37.431Z,98040.13
2023-01-13T00:46:04.577Z,98044.38
2023-01-13T00:48:31.763Z,98046.16
2023-01-13T00:50:58.889Z,98040.97
2023-01-13T00:53:25.943Z,98041.91
2023-01-13T00:55:53.010Z,98040.97
2023-01-13T00:58:20.057Z,98041.06
2023-01-13T01:00:47.214Z,98035.88
2023-01-13T01:03:14.342Z,98028.94
2023-01-13T01:05:41.399Z,98021.94
2023-01-13T01:08:08.489Z,98024.56
2023-01-13T01:10:35.564Z,98015.59
2023-01-13T01:15:49.670Z,98018.78
2023-01-13T01:18:16.750Z,98025.63
2023-01-13T01:20:43.813Z,98019.47
2023-01-13T01:23:11.162Z,98027.25
2023-01-13T01:25:38.263Z,98030.81
2023-01-13T01:28:05.409Z,98030.56
2023-01-13T01:30:32.579Z,98028.22
2023-01-13T01:32:59.649Z,98024.78
2023-01-13T01:35:26.780Z,98029.03
2023-01-13T01:37:53.846Z,98027.00
2023-01-13T01:40:20.970Z,98017.59
2023-01-13T01:43:06.922Z,98015.66
2023-01-13T01:45:33.979Z,98012.38
2023-01-13T01:50:48.183Z,98006.59
2023-01-13T01:53:15.293Z,97996.09
2023-01-13T01:55:44.367Z,97995.41
2023-01-13T01:58:11.913Z,97995.41
2023-01-13T02:00:39.236Z,97988.66
2023-01-13T02:03:06.318Z,97983.47
2023-01-13T02:05:34.432Z,97977.47
2023-01-13T02:10:48.516Z,97980.06
2023-01-13T02:13:15.570Z,97981.84
2023-01-13T02:15:42.633Z,97985.50
2023-01-13T02:18:09.750Z,97983.72
2023-01-13T02:20:36.834Z,97980.16
2023-01-13T02:23:03.909Z,97969.91
2023-01-13T02:25:30.999Z,97970.72
2023-01-13T02:27:58.520Z,97964.84
2023-01-13T02:30:44.739Z,97952.69
2023-01-13T02:33:11.811Z,97957.16
2023-01-13T02:35:38.913Z,97952.09
2023-01-13T02:38:05.981Z,97959.06
2023-01-13T02:40:33.229Z,97954.69
2023-01-13T02:43:19.106Z,97953.88
2023-01-13T02:45:46.184Z,97943.72
2023-01-13T02:48:13.252Z,97947.97
2023-01-13T02:50:40.342Z,97953.16
2023-01-13T02:53:07.720Z,97949.75
2023-01-13T02:55:34.844Z,97953.28
2023-01-13T03:00:48.910Z,97939.50
2023-01-13T03:03:15.993Z,97937.00
2023-01-13T03:05:43.165Z,97930.03
2023-01-13T03:08:10.300Z,97935.13
2023-01-13T03:10:37.475Z,97932.63
2023-01-13T03:13:04.632Z,97935.34
2023-01-13T03:15:37.069Z,97931.00
2023-01-13T03:18:04.183Z,97928.41
2023-01-13T03:20:31.262Z,97928.28
2023-01-13T03:22:58.346Z,97926.63
2023-01-13T03:25:25.433Z,97924.97
2023-01-13T03:27:52.602Z,97924.25
2023-01-13T03:30:19.830Z,97925.13
2023-01-13T03:32:46.944Z,97923.56
2023-01-13T03:35:14.012Z,97920.03
2023-01-13T03:37:41.088Z,97915.66
2023-01-13T03:40:08.168Z,97919.06
2023-01-13T03:42:35.308Z,97919.06
2023-01-13T03:47:49.429Z,97920.84
2023-01-13T03:50:16.581Z,97915.78
2023-01-13T03:52:43.650Z,97918.38
2023-01-13T03:55:10.766Z,97921.94
2023-01-13T03:57:37.951Z,97925.22
2023-01-13T04:00:05.046Z,97920.97
2023-01-13T04:02:32.151Z,97926.16
2023-01-13T04:04:59.223Z,97924.53
2023-01-13T04:07:26.300Z,97921.78
2023-01-13T04:09:53.503Z,97923.00
2023-01-13T04:12:20.597Z,97916.97
2023-01-13T04:14:47.720Z,97918.63
2023-01-13T04:17:14.800Z,97917.09
2023-01-13T04:19:41.876Z,97918.63
2023-01-13T04:22:08.959Z,97921.34
2023-01-13T04:24:37.197Z,97921.22
2023-01-13T04:27:04.327Z,97918.84
2023-01-13T04:29:31.438Z,97928.41
2023-01-13T04:31:58.559Z,97921.34
2023-01-13T04:34:28.215Z,97923.00
2023-01-13T04:36:55.514Z,97924.88
2023-01-13T04:39:22.567Z,97923.13
2023-01-13T04:41:59.089Z,97919.81
2023-01-13T04:44:26.431Z,97918.84
2023-01-13T04:46:53.505Z,97918.75
2023-01-13T04:49:20.618Z,97925.00
2023-01-13T04:51:47.681Z,97913.66
2023-01-13T04:54:14.759Z,97916.50
2023-01-13T04:56:41.844Z,97907.78
2023-01-13T05:01:56.069Z,97902.47
2023-01-13T05:04:23.298Z,97911.44
2023-01-13T05:06:50.573Z,97906.97
2023-01-13T05:09:17.686Z,97913.91
2023-01-13T05:15:09.255Z,97915.56
2023-01-13T05:17:36.388Z,97922.78
2023-01-13T05:23:09.043Z,97911.44
2023-01-13T05:25:36.118Z,97921.97
2023-01-13T05:30:51.235Z,97909.91
2023-01-13T05:33:18.461Z,97912.25
2023-01-13T05:35:45.534Z,97908.97
2023-01-13T05:38:12.601Z,97908.97
2023-01-13T05:40:59.608Z,97905.53
2023-01-13T05:43:26.854Z,97911.56
2023-01-13T05:45:54.383Z,97916.88
2023-01-13T05:48:21.448Z,97911.56
2023-01-13T05:50:49.569Z,97908.03
2023-01-13T05:53:16.682Z,97913.31
2023-01-13T05:55:43.749Z,97903.78
2023-01-13T05:58:10.832Z,97910.72
2023-01-13T06:03:13.949Z,97905.53
2023-01-13T06:05:41.125Z,97903.91
2023-01-13T06:08:08.376Z,97897.88
2023-01-13T06:10:35.503Z,97902.94
2023-01-13T06:15:49.684Z,97896.00
2023-01-13T06:18:17.023Z,97903.06
2023-01-13T06:20:44.240Z,97897.75
2023-01-13T06:23:11.347Z,97895.28
2023-01-13T06:25:38.417Z,97899.66
2023-01-13T06:28:05.587Z,97890.22
2023-01-13T06:30:32.645Z,97894.59
2023-01-13T06:32:59.733Z,97897.88
2023-01-13T06:35:26.824Z,97893.66
2023-01-13T06:37:53.923Z,97900.72
2023-01-13T06:40:21.041Z,97902.38
2023-01-13T06:43:06.897Z,97903.91
2023-01-13T06:45:34.018Z,97908.25
2023-01-13T06:50:48.100Z,97903.22
2023-01-13T06:53:15.195Z,97901.28
2023-01-13T06:55:42.284Z,97900.47
2023-01-13T06:58:09.420Z,97903.06
2023-01-13T07:00:37.279Z,97905.81
2023-01-13T07:03:06.934Z,97903.06
2023-01-13T07:05:34.204Z,97903.22
2023-01-13T07:10:48.258Z,97901.44
2023-01-13T07:13:34.065Z,97914.28
2023-01-13T07:18:48.128Z,97906.50
2023-01-13T07:21:18.855Z,97907.22
2023-01-13T07:23:45.937Z,97906.38
2023-01-13T07:28:40.356Z,97905.53
2023-01-13T07:31:07.434Z,97901.88
2023-01-13T07:33:34.557Z,97897.66
2023-01-13T07:38:48.643Z,97908.72
2023-01-13T07:41:34.470Z,97907.06
2023-01-13T07:44:04.956Z,97902.69
2023-01-13T07:46:32.137Z,97897.50
2023-01-13T07:48:59.317Z,97900.00
2023-01-13T07:51:26.421Z,97895.63
2023-01-13T07:53:53.534Z,97895.63
2023-01-13T07:56:20.616Z,97895.50
2023-01-13T07:58:51.057Z,97887.72
2023-01-13T08:01:18.298Z,97885.09
2023-01-13T08:03:45.487Z,97892.78
2023-01-13T08:06:12.566Z,97886.78
2023-01-13T08:08:39.680Z,97893.63
2023-01-13T08:11:06.760Z,97894.44
2023-01-13T08:13:33.842Z,97894.44
2023-01-13T08:18:48.039Z,97897.84
2023-01-13T08:21:15.215Z,97897.72
2023-01-13T08:23:42.484Z,97906.22
2023-01-13T08:26:09.605Z,97901.84
2023-01-13T08:28:36.689Z,97906.22
2023-01-13T08:31:03.966Z,97895.13
2023-01-13T08:33:31.334Z,97898.56
2023-01-13T08:35:58.473Z,97908.00
2023-01-13T08:38:25.702Z,97904.44
2023-01-13T08:40:52.986Z,97907.84
2023-01-13T08:43:20.073Z,97913.06
2023-01-13T08:45:47.203Z,97916.59
2023-01-13T08:48:14.288Z,97917.44
2023-01-13T08:50:41.337Z,97926.03
2023-01-13T08:53:08.445Z,97927.72
2023-01-13T08:55:35.637Z,97930.88
2023-01-13T08:58:15.259Z,97934.31
2023-01-13T09:00:43.238Z,97940.31
2023-01-13T09:03:10.504Z,97942.19
2023-01-13T09:05:37.596Z,97947.91
2023-01-13T09:08:05.258Z,97947.28
2023-01-13T09:10:32.497Z,97958.50
2023-01-13T09:13:15.552Z,97955.66
2023-01-13T09:15:42.964Z,97965.19
2023-01-13T09:18:10.097Z,97963.44
2023-01-13T09:20:37.902Z,97962.50
2023-01-13T09:23:06.094Z,97972.06
2023-01-13T09:25:36.570Z,97975.25
2023-01-13T09:28:05.033Z,98001.44
2023-01-13T09:30:32.154Z,97993.66
2023-01-13T09:33:18.350Z,98032.22
2023-01-13T09:35:45.443Z,98051.47
2023-01-13T09:38:12.541Z,98066.81
2023-01-13T09:40:39.710Z,98063.25
2023-01-13T09:43:25.872Z,98052.91
2023-01-13T09:45:52.879Z,98047.81
2023-01-13T09:48:19.976Z,98065.53
2023-01-13T09:50:47.124Z,98060.09
2023-01-13T09:53:14.501Z,98054.63
2023-01-13T09:55:41.786Z,98059.00
2023-01-13T09:58:08.895Z,98056.41
2023-01-13T10:00:36.412Z,98049.34
2023-01-13T10:05:50.599Z,98046.38
2023-01-13T10:08:17.661Z,98029.00
2023-01-13T10:10:44.731Z,98030.78
2023-01-13T10:13:14.955Z,98023.44
2023-01-13T10:15:42.060Z,98017.41
2023-01-13T10:18:09.201Z,98024.25
2023-01-13T10:20:36.417Z,98030.03
2023-01-13T10:25:50.575Z,98029.44
2023-01-13T10:28:23.816Z,98028.41
2023-01-13T10:30:50.989Z,98036.44
2023-01-13T10:33:18.106Z,98051.91
2023-01-13T10:35:45.207Z,98055.31
2023-01-13T10:38:12.290Z,98056.63
2023-01-13T10:40:39.369Z,98054.50
2023-01-13T10:43:06.743Z,98055.13
2023-01-13T10:45:33.950Z,98062.69
2023-01-13T10:50:48.388Z,98038.56
2023-01-13T10:53:15.445Z,98034.19
2023-01-13T10:55:42.671Z,98037.75
2023-01-13T10:58:09.747Z,98037.63
2023-01-13T11:00:36.876Z,98041.88
2023-01-13T11:03:04.014Z,98046.00
2023-01-13T11:05:31.092Z,98035.22
2023-01-13T11:07:58.159Z,98035.75
2023-01-13T11:10:27.251Z,98034.41
2023-01-13T11:12:54.645Z,98035.22
2023-01-13T11:15:21.719Z,98024.38
2023-01-13T11:17:48.809Z,98026.84
2023-01-13T11:20:15.986Z,98028.41
2023-01-13T11:22:43.065Z,98023.34
2023-01-13T11:25:10.460Z,98021.66
2023-01-13T11:27:37.568Z,98017.41
2023-01-13T11:30:09.692Z,98027.44
2023-01-13T11:32:36.789Z,98018.38
2023-01-13T11:35:03.854Z,98014.72
2023-01-13T11:37:30.970Z,98018.81
2023-01-13T11:39:58.131Z,98010.44
2023-01-13T11:42:25.251Z,98017.91
2023-01-13T11:44:52.322Z,98014.44
2023-01-13T11:47:19.417Z,98020.72
2023-01-13T11:49:48.650Z,98037.81
2023-01-13T11:52:15.745Z,98037.00
2023-01-13T11:54:42.808Z,98038.41
2023-01-13T11:57:09.876Z,98038.78
2023-01-13T11:59:36.982Z,98040.94
2023-01-13T12:02:04.147Z,98041.75
2023-01-13T12:04:31.243Z,98053.31
2023-01-13T12:06:58.316Z,98051.88
2023-01-13T12:09:25.715Z,98043.25
2023-01-13T12:12:11.463Z,98044.31
2023-01-13T12:14:38.760Z,98043.88
2023-01-13T12:17:05.826Z,98049.31
2023-01-13T12:19:32.916Z,98050.94
2023-01-13T12:21:59.983Z,98058.31
2023-01-13T12:24:27.065Z,98043.63
2023-01-13T12:26:57.823Z,98045.31
2023-01-13T12:29:24.907Z,98046.13
2023-01-13T12:31:52.002Z,98053.09
2023-01-13T12:34:19.097Z,98065.50
2023-01-13T12:36:46.181Z,98067.00
2023-01-13T12:42:19.178Z,98051.16
2023-01-13T12:44:46.277Z,98036.63
2023-01-13T12:47:13.385Z,98034.53
2023-01-13T12:49:45.830Z,98043.16
2023-01-13T12:52:13.800Z,98042.09
2023-01-13T12:54:40.974Z,98039.47
2023-01-13T12:57:08.047Z,98041.94
2023-01-13T12:59:35.185Z,98045.97
2023-01-13T13:04:49.808Z,98071.00
2023-01-13T13:07:16.870Z,98060.59
2023-01-13T13:09:44.126Z,98051.88
2023-01-13T13:12:11.176Z,98043.59
2023-01-13T13:14:38.280Z,98052.94
2023-01-13T13:17:05.404Z,98054.47
2023-01-13T13:19:32.511Z,98046.44
2023-01-13T13:21:59.575Z,98056.09
2023-01-13T13:24:26.646Z,98046.25
2023-01-13T13:26:53.720Z,98044.34
2023-01-13T13:29:20.828Z,98038.47
2023-01-13T13:31:47.916Z,98043.22
2023-01-13T13:34:14.983Z,98044.47
2023-01-13T13:36:42.055Z,98050.63
2023-01-13T13:39:28.464Z,98053.09
2023-01-13T13:42:14.193Z,98070.09
2023-01-13T13:45:00.180Z,98078.72
2023-01-13T13:47:27.305Z,98073.66
2023-01-13T13:49:54.500Z,98079.00
2023-01-13T13:52:21.693Z,98077.31
2023-01-13T13:54:49.405Z,98079.44
2023-01-13T13:57:16.751Z,98080.50
2023-01-13T13:59:44.745Z,98088.19
2023-01-13T14:02:15.342Z,98084.88
2023-01-13T14:04:42.580Z,98085.31
2023-01-13T14:07:09.879Z,98089.84
2023-01-13T14:09:36.937Z,98094.22
2023-01-13T14:12:04.007Z,98102.25
2023-01-13T14:14:31.130Z,98104.03
2023-01-13T14:16:58.735Z,98106.41
2023-01-13T14:19:25.929Z,98106.25
2023-01-13T14:21:52.998Z,98107.59
2023-01-13T14:24:22.431Z,98112.88
2023-01-13T14:26:53.221Z,98109.81
2023-01-13T14:29:20.345Z,98110.41
2023-01-13T14:31:47.453Z,98105.00
2023-01-13T14:34:30.965Z,98098.38
2023-01-13T14:37:00.780Z,98101.69
2023-01-13T14:39:27.997Z,98108.19
2023-01-13T14:41:55.294Z,98113.50
2023-01-13T14:44:22.369Z,98119.28
2023-01-13T14:46:49.476Z,98126.13
2023-01-13T14:49:16.523Z,98129.44
2023-01-13T14:51:43.610Z,98126.03
2023-01-13T14:54:10.717Z,98137.09
2023-01-13T14:56:38.006Z,98139.84
2023-01-13T14:59:05.220Z,98138.50
2023-01-13T15:01:34.747Z,98144.56
2023-01-13T15:06:49.165Z,98152.09
2023-01-13T15:09:16.245Z,98145.84
2023-01-13T15:11:43.369Z,98150.31
2023-01-13T15:14:10.476Z,98144.19
2023-01-13T15:16:37.540Z,98146.91
2023-01-13T15:19:04.774Z,98158.00
2023-01-13T15:21:31.862Z,98163.31
2023-01-13T15:23:59.872Z,98165.59
2023-01-13T15:26:27.006Z,98173.72
2023-01-13T15:28:54.175Z,98191.09
2023-01-13T15:31:21.286Z,98186.16
2023-01-13T15:33:48.571Z,98196.56
2023-01-13T15:36:15.686Z,98193.69
2023-01-13T15:38:42.782Z,98202.31
2023-01-13T15:41:09.915Z,98211.88
2023-01-13T15:43:55.519Z,98213.28
2023-01-13T15:46:37.905Z,98220.97
2023-01-13T15:49:09.679Z,98226.41
2023-01-13T15:51:36.807Z,98231.13
2023-01-13T15:54:03.910Z,98242.59
2023-01-13T15:56:31.056Z,98250.84
2023-01-13T15:58:58.180Z,98255.94
2023-01-13T16:01:25.432Z,98265.59
2023-01-13T16:03:52.668Z,98273.16
2023-01-13T16:06:19.747Z,98272.59
2023-01-13T16:08:46.817Z,98277.16
2023-01-13T16:11:14.081Z,98274.81
2023-01-13T16:13:41.172Z,98295.25
2023-01-13T16:16:08.391Z,98299.78
2023-01-13T16:18:35.564Z,98310.31
2023-01-13T16:23:49.704Z,98328.41
2023-01-13T16:26:16.924Z,98327.44
2023-01-13T16:28:44.092Z,98339.63
2023-01-13T16:31:11.211Z,98333.22
2023-01-13T16:33:38.301Z,98344.22
2023-01-13T16:36:10.830Z,98335.59
2023-01-13T16:38:40.037Z,98339.59
2023-01-13T16:43:54.666Z,98346.25
2023-01-13T16:46:21.812Z,98348.03
2023-01-13T16:48:49.062Z,98337.63
2023-01-13T16:51:16.157Z,98348.75
2023-01-13T16:53:43.263Z,98352.88
2023-01-13T16:58:57.793Z,98355.22
2023-01-13T17:01:25.037Z,98359.22
2023-01-13T17:03:52.270Z,98364.00
2023-01-13T17:06:19.448Z,98373.31
2023-01-13T17:08:46.527Z,98370.72
2023-01-13T17:11:13.701Z,98373.56
2023-01-13T17:13:41.062Z,98373.28
2023-01-13T17:16:08.180Z,98373.41
2023-01-13T17:18:35.355Z,98382.19
2023-01-13T17:21:02.497Z,98387.25
2023-01-13T17:23:31.562Z,98385.38
2023-01-13T17:25:58.795Z,98390.34
2023-01-13T17:28:26.025Z,98392.81
2023-01-13T17:30:54.564Z,98389.75
2023-01-13T17:33:21.742Z,98388.06
2023-01-13T17:35:49.311Z,98397.53
2023-01-13T17:38:16.622Z,98400.59
2023-01-13T17:40:43.726Z,98394.81
2023-01-13T17:43:10.842Z,98380.13
2023-01-13T17:45:37.934Z,98381.53
2023-01-13T17:48:05.062Z,98388.88
2023-01-13T17:50:34.091Z,98383.56
2023-01-13T17:53:01.202Z,98391.38
2023-01-13T17:55:28.280Z,98402.25
2023-01-13T17:57:55.456Z,98402.50
2023-01-13T18:00:22.750Z,98406.78
2023-01-13T18:02:49.876Z,98406.28
2023-01-13T18:05:17.020Z,98412.06
2023-01-13T18:07:44.144Z,98405.94
2023-01-13T18:10:11.227Z,98415.84
2023-01-13T18:12:38.327Z,98422.94
2023-01-13T18:15:05.658Z,98420.22
2023-01-13T18:17:32.732Z,98424.44
2023-01-13T18:20:18.726Z,98426.81
2023-01-13T18:23:04.768Z,98431.06
2023-01-13T18:25:50.486Z,98432.41
2023-01-13T18:28:17.668Z,98443.78
2023-01-13T18:30:44.819Z,98449.09
2023-01-13T18:35:59.024Z,98450.47
2023-01-13T18:38:26.685Z,98451.19
2023-01-13T18:40:53.794Z,98458.50
2023-01-13T18:43:20.905Z,98475.19
2023-01-13T18:45:48.047Z,98470.91
2023-01-13T18:48:16.182Z,98470.91
2023-01-13T18:50:43.361Z,98478.09
2023-01-13T18:53:10.453Z,98480.72
2023-01-13T18:55:37.544Z,98480.78
2023-01-13T18:58:04.659Z,98480.78
2023-01-13T19:00:36.678Z,98482.22
2023-01-13T19:05:34.131Z,98492.66
2023-01-13T19:08:01.350Z,98490.72
2023-01-13T19:10:31.902Z,98492.47
2023-01-13T19:12:59.058Z,98491.66
2023-01-13T19:15:26.159Z,98496.16
2023-01-13T19:17:53.241Z,98499.06
2023-01-13T19:20:20.349Z,98500.41
2023-01-13T19:22:53.913Z,98492.81
2023-01-13T19:25:21.144Z,98499.28
2023-01-13T19:27:48.284Z,98509.91
2023-01-13T19:33:02.619Z,98516.03
2023-01-13T19:35:29.799Z,98518.75
2023-01-13T19:37:57.148Z,98525.25
2023-01-13T19:40:24.504Z,98527.84
2023-01-13T19:45:58.279Z,98535.75
2023-01-13T19:48:26.358Z,98524.88
2023-01-13T19:50:53.738Z,98533.13
2023-01-13T19:59:53.087Z,98542.25
2023-01-13T20:02:31.689Z,98543.78
2023-01-13T20:04:59.246Z,98541.53
2023-01-13T20:07:26.399Z,98539.31
2023-01-13T20:09:53.897Z,98543.81
2023-01-13T20:12:21.554Z,98538.59
2023-01-13T20:14:50.162Z,98542.00
2023-01-13T20:20:05.050Z,98536.53
2023-01-13T20:25:20.094Z,98553.50
2023-01-13T20:27:47.640Z,98562.16
2023-01-13T20:30:15.297Z,98559.41
2023-01-13T20:32:42.657Z,98545.22
2023-01-13T20:35:09.993Z,98558.38
2023-01-13T20:37:37.355Z,98564.91
2023-01-13T20:40:05.639Z,98571.53
2023-01-13T20:42:40.096Z,98571.53
2023-01-13T20:45:07.703Z,98571.25
2023-01-13T20:47:35.178Z,98575.41
2023-01-13T20:55:37.286Z,98592.06
2023-01-13T20:58:04.663Z,98594.59
2023-01-13T21:00:32.389Z,98595.53
2023-01-13T21:03:00.255Z,98589.16
2023-01-13T21:05:28.578Z,98589.41
2023-01-13T21:07:56.150Z,98597.69
2023-01-13T21:10:23.722Z,98602.91
2023-01-13T21:13:17.438Z,98595.69
2023-01-13T21:15:44.897Z,98606.03
2023-01-13T21:18:31.013Z,98616.47
2023-01-13T22:00:36.776Z,98644.44
2023-01-13T22:06:32.960Z,98644.66
2023-01-13T22:12:30.593Z,98651.06
2023-01-13T22:48:15.085Z,98679.19
2023-01-13T22:50:42.042Z,98690.69
2023-01-13T22:53:08.912Z,98689.59
2023-01-13T22:55:35.876Z,98690.78
2023-01-13T22:58:02.812Z,98694.94
2023-01-13T23:00:29.696Z,98697.56
2023-01-13T23:05:45.707Z,98700.53
2023-01-13T23:08:13.209Z,98707.75
2023-01-13T23:13:28.364Z,98714.84
2023-01-13T23:15:55.951Z,98718.03
2023-01-13T23:18:23.471Z,98718.88
2023-01-13T23:20:51.257Z,98725.44
2023-01-13T23:23:18.874Z,98724.47
2023-01-13T23:25:46.235Z,98729.44
2023-01-13T23:28:13.736Z,98725.88
2023-01-13T23:30:40.987Z,98730.50
2023-01-13T23:33:08.175Z,98729.81
2023-01-13T23:35:35.420Z,98730.28
2023-01-13T23:38:02.610Z,98730.41
2023-01-13T23:40:29.810Z,98734.91
2023-01-13T23:42:57.085Z,98723.66
2023-01-13T23:45:24.274Z,98724.59
2023-01-13T23:47:51.460Z,98721.28
2023-01-13T23:50:18.627Z,98720.44
2023-01-13T23:52:45.813Z,98716.25
2023-01-13T23:55:13.113Z,98733.81
2023-01-13T23:57:40.837Z,98731.06
